Time;durP1;ratioP1;P1;durP2;ratioP2;P2;SDS_P1;SDS_P2;PMS_P1;PMS_P2;Temp;Humidity;BMP_temperature;BMP_pressure;BME280_temperature;BME280_humidity;BME280_pressure;Samples;Min_cycle;Max_cycle;Signal;HPM_P1;HPM_P2
2022/09/18 00:00:00;;;;;;;0.50;0.40;;;8.50;99.90;;;;;;5103647;28;20461;-83
2022/09/18 00:02:27;;;;;;;0.40;0.20;;;8.50;99.90;;;;;;5106013;28;20880;-82
2022/09/18 00:04:54;;;;;;;0.40;0.30;;;8.50;99.90;;;;;;5107901;28;20513;-81
2022/09/18 00:07:21;;;;;;;1.07;0.40;;;8.50;99.90;;;;;;5106418;27;20988;-84
2022/09/18 00:09:49;;;;;;;1.13;0.30;;;8.50;99.90;;;;;;5105025;28;20518;-84
2022/09/18 00:12:16;;;;;;;0.87;0.30;;;8.50;99.90;;;;;;5097984;28;20505;-82
2022/09/18 00:14:44;;;;;;;0.50;0.40;;;8.50;99.90;;;;;;5106666;28;20461;-84
2022/09/18 00:17:11;;;;;;;0.40;0.30;;;8.50;99.90;;;;;;5109609;28;20580;-83
2022/09/18 00:19:38;;;;;;;0.50;0.30;;;8.50;99.90;;;;;;5101050;28;20568;-84
2022/09/18 00:22:05;;;;;;;0.40;0.30;;;8.50;99.90;;;;;;5106917;28;20510;-85
2022/09/18 00:24:32;;;;;;;0.60;0.40;;;8.50;99.90;;;;;;5104619;28;20538;-84
2022/09/18 00:27:00;;;;;;;3.80;0.30;;;8.50;99.90;;;;;;5107973;28;20441;-84
2022/09/18 00:29:27;;;;;;;0.40;0.30;;;8.50;99.90;;;;;;5107514;28;20473;-83
2022/09/18 00:31:54;;;;;;;1.20;0.40;;;8.50;99.90;;;;;;5103049;28;20458;-84
2022/09/18 00:34:21;;;;;;;0.50;0.40;;;8.50;99.90;;;;;;5103480;28;20493;-84
2022/09/18 00:36:49;;;;;;;0.40;0.30;;;8.50;99.90;;;;;;5102510;27;21132;-85
2022/09/18 00:39:16;;;;;;;0.50;0.30;;;8.50;99.90;;;;;;5101074;28;21023;-82
2022/09/18 00:41:44;;;;;;;0.47;0.30;;;8.50;99.90;;;;;;5105148;28;20462;-85
2022/09/18 00:44:34;;;;;;;0.43;0.43;;;8.40;99.90;;;;;;5106382;27;20457;-84
2022/09/18 00:47:13;;;;;;;0.50;0.30;;;8.40;99.90;;;;;;5102204;28;20487;-83
2022/09/18 00:49:42;;;;;;;0.70;0.40;;;8.40;99.90;;;;;;5100002;28;20521;-83
2022/09/18 00:52:10;;;;;;;1.23;0.40;;;8.30;99.90;;;;;;5103933;28;20461;-84
2022/09/18 00:54:40;;;;;;;0.63;0.63;;;8.40;99.90;;;;;;5108764;27;20458;-83
2022/09/18 00:57:11;;;;;;;0.50;0.40;;;8.40;99.90;;;;;;5103635;28;20457;-83
2022/09/18 00:59:43;;;;;;;0.40;0.30;;;8.60;99.90;;;;;;5103674;28;20470;-84
2022/09/18 01:02:11;;;;;;;0.50;0.40;;;8.60;99.90;;;;;;5105349;28;20462;-83
2022/09/18 01:04:38;;;;;;;1.10;0.30;;;8.50;99.90;;;;;;5104802;28;20460;-83
2022/09/18 01:07:14;;;;;;;1.03;0.40;;;8.60;99.90;;;;;;5103472;27;20481;-82
2022/09/18 01:09:48;;;;;;;0.63;0.30;;;8.60;99.90;;;;;;5102969;28;20544;-85
2022/09/18 01:12:26;;;;;;;0.60;0.40;;;8.60;99.90;;;;;;5103065;28;20507;-83
2022/09/18 01:15:03;;;;;;;0.50;0.40;;;8.60;99.90;;;;;;5098391;27;20527;-84
2022/09/18 01:17:38;;;;;;;0.60;0.40;;;8.70;99.90;;;;;;5104364;28;20464;-83
2022/09/18 01:20:27;;;;;;;1.27;0.30;;;8.70;99.90;;;;;;5104726;27;20500;-82
2022/09/18 01:23:19;;;;;;;0.40;0.23;;;8.70;99.90;;;;;;5100789;27;20501;-82
2022/09/18 01:26:00;;;;;;;0.70;0.30;;;8.60;99.90;;;;;;5090467;28;20477;-83
2022/09/18 01:28:36;;;;;;;0.67;0.43;;;8.60;99.90;;;;;;5105546;28;20511;-84
2022/09/18 01:31:08;;;;;;;2.17;0.40;;;8.60;99.90;;;;;;5101217;28;20521;-83
2022/09/18 01:33:43;;;;;;;1.57;0.40;;;8.50;99.90;;;;;;5102882;28;20458;-83
2022/09/18 01:36:14;;;;;;;0.40;0.40;;;8.40;99.90;;;;;;5104881;27;20452;-84
2022/09/18 01:38:45;;;;;;;0.57;0.37;;;8.40;99.90;;;;;;5100054;28;20474;-84
2022/09/18 01:41:18;;;;;;;0.90;0.50;;;8.40;99.90;;;;;;5097235;28;20446;-84
2022/09/18 01:43:48;;;;;;;0.50;0.40;;;8.40;99.90;;;;;;5107446;28;20445;-84
2022/09/18 01:46:18;;;;;;;0.50;0.40;;;8.50;99.90;;;;;;5101207;28;20604;-82
2022/09/18 01:48:51;;;;;;;1.13;0.50;;;8.50;99.90;;;;;;5101561;28;20536;-83
2022/09/18 01:51:22;;;;;;;1.90;1.13;;;8.60;99.90;;;;;;5104183;28;20442;-83
2022/09/18 01:53:54;;;;;;;0.67;0.60;;;8.60;99.90;;;;;;5103247;28;21258;-83
2022/09/18 01:56:25;;;;;;;3.20;0.40;;;8.60;99.90;;;;;;5100918;28;21054;-84
2022/09/18 01:58:58;;;;;;;5.80;0.93;;;8.50;99.90;;;;;;5102801;27;20460;-82
2022/09/18 02:01:28;;;;;;;2.73;0.60;;;8.60;99.90;;;;;;5104429;28;20510;-81
2022/09/18 02:04:00;;;;;;;0.50;0.40;;;8.60;99.90;;;;;;5097820;28;20469;-82
2022/09/18 02:06:32;;;;;;;0.70;0.40;;;8.60;99.90;;;;;;5106141;28;20900;-82
2022/09/18 02:09:02;;;;;;;1.33;0.47;;;8.60;99.90;;;;;;5097333;27;20941;-83
2022/09/18 02:11:33;;;;;;;2.10;0.47;;;8.60;99.90;;;;;;5106353;28;20454;-82
2022/09/18 02:14:07;;;;;;;1.47;0.50;;;8.50;99.90;;;;;;5104771;28;20461;-83
2022/09/18 02:16:39;;;;;;;4.60;0.40;;;8.60;99.90;;;;;;5100109;28;20511;-84
2022/09/18 02:19:12;;;;;;;2.40;0.60;;;8.60;99.90;;;;;;5105009;28;20506;-84
2022/09/18 02:21:42;;;;;;;0.70;0.50;;;8.70;99.90;;;;;;5103225;28;20511;-83
2022/09/18 02:24:12;;;;;;;0.60;0.43;;;8.60;99.90;;;;;;5100055;28;20454;-83
2022/09/18 02:26:41;;;;;;;0.70;0.43;;;8.60;99.90;;;;;;5094493;28;20477;-82
2022/09/18 02:29:12;;;;;;;0.50;0.50;;;8.60;99.90;;;;;;5105683;28;20459;-85
2022/09/18 02:31:40;;;;;;;0.43;0.43;;;8.60;99.90;;;;;;5098135;27;20465;-84
2022/09/18 02:34:09;;;;;;;3.50;0.70;;;8.60;99.90;;;;;;5102858;27;20473;-83
2022/09/18 02:36:59;;;;;;;0.50;0.40;;;8.60;99.90;;;;;;5101525;27;20470;-82
2022/09/18 02:39:37;;;;;;;1.10;0.40;;;8.60;99.90;;;;;;5099014;27;20461;-82
2022/09/18 02:42:16;;;;;;;1.47;0.43;;;8.60;99.90;;;;;;5101063;28;20532;-83
2022/09/18 02:44:54;;;;;;;0.50;0.30;;;8.60;99.90;;;;;;5102953;27;20515;-84
2022/09/18 02:47:33;;;;;;;3.50;0.43;;;8.50;99.90;;;;;;5102575;28;20489;-84
2022/09/18 02:50:10;;;;;;;0.63;0.53;;;8.60;99.90;;;;;;5098810;28;20545;-83
2022/09/18 02:52:46;;;;;;;0.70;0.50;;;8.50;99.90;;;;;;5099163;28;20507;-82
2022/09/18 02:55:17;;;;;;;0.50;0.40;;;8.50;99.90;;;;;;5100458;27;20511;-83
2022/09/18 02:57:48;;;;;;;0.60;0.50;;;8.40;99.90;;;;;;5105953;28;20461;-84
2022/09/18 03:00:17;;;;;;;0.50;0.50;;;8.30;99.90;;;;;;5098899;27;20722;-85
2022/09/18 03:02:45;;;;;;;0.90;0.60;;;8.30;99.90;;;;;;5100704;28;20511;-84
2022/09/18 03:05:13;;;;;;;0.60;0.50;;;8.20;99.90;;;;;;5108531;28;20453;-82
2022/09/18 03:07:40;;;;;;;0.70;0.60;;;8.10;99.90;;;;;;5126730;28;20488;-82
2022/09/18 03:10:07;;;;;;;1.47;0.80;;;8.00;99.90;;;;;;5115082;28;20455;-82
2022/09/18 03:12:34;;;;;;;2.50;0.47;;;8.00;99.90;;;;;;5116610;28;20467;-81
2022/09/18 03:15:01;;;;;;;1.33;0.43;;;8.00;99.90;;;;;;5108497;28;20969;-84
2022/09/18 03:17:30;;;;;;;0.50;0.47;;;8.10;99.90;;;;;;5104199;28;20534;-83
2022/09/18 03:19:57;;;;;;;1.43;1.33;;;8.10;99.90;;;;;;5099661;28;21323;-82
2022/09/18 03:22:24;;;;;;;0.70;0.47;;;8.10;99.90;;;;;;5099969;28;20513;-82
2022/09/18 03:24:51;;;;;;;0.80;0.50;;;8.10;99.90;;;;;;5098626;28;20458;-85
2022/09/18 03:27:18;;;;;;;1.83;0.50;;;8.00;99.90;;;;;;5106052;28;20500;-82
2022/09/18 03:29:45;;;;;;;2.97;0.67;;;8.00;99.90;;;;;;5102857;28;20482;-83
2022/09/18 03:32:12;;;;;;;1.53;0.60;;;7.90;99.90;;;;;;5097596;28;20454;-82
2022/09/18 03:34:40;;;;;;;0.50;0.43;;;7.80;99.90;;;;;;5099296;28;20517;-83
2022/09/18 03:37:07;;;;;;;1.47;0.50;;;7.90;99.90;;;;;;5100533;28;20461;-83
2022/09/18 03:39:34;;;;;;;1.13;0.60;;;7.80;99.90;;;;;;5100011;28;20524;-84
2022/09/18 03:42:01;;;;;;;1.43;0.50;;;7.90;99.90;;;;;;5104282;28;20649;-85
2022/09/18 03:44:28;;;;;;;0.60;0.60;;;7.90;99.90;;;;;;5100658;28;20470;-82
2022/09/18 03:46:55;;;;;;;0.50;0.40;;;7.90;99.90;;;;;;5094165;28;20475;-83
2022/09/18 03:49:22;;;;;;;7.47;0.50;;;7.90;99.90;;;;;;5102231;28;20531;-84
2022/09/18 03:51:50;;;;;;;0.60;0.47;;;7.90;99.90;;;;;;5102727;28;20516;-83
2022/09/18 03:54:18;;;;;;;1.80;0.50;;;7.90;99.90;;;;;;5098012;28;20463;-84
2022/09/18 03:56:45;;;;;;;0.90;0.53;;;7.90;99.90;;;;;;5102922;28;20458;-84
2022/09/18 03:59:12;;;;;;;4.00;1.00;;;7.90;99.90;;;;;;5097971;28;20531;-82
2022/09/18 04:01:39;;;;;;;1.70;0.70;;;7.90;99.90;;;;;;5099942;28;20520;-82
2022/09/18 04:04:06;;;;;;;0.63;0.43;;;7.90;99.90;;;;;;5098234;28;20454;-82
2022/09/18 04:06:33;;;;;;;4.40;0.57;;;8.00;99.90;;;;;;5102620;28;20541;-82
2022/09/18 04:09:01;;;;;;;1.77;0.40;;;8.00;99.90;;;;;;5103689;28;20456;-84
2022/09/18 04:11:28;;;;;;;0.60;0.40;;;8.00;99.90;;;;;;5105792;28;21046;-84
2022/09/18 04:13:55;;;;;;;0.60;0.40;;;8.00;99.90;;;;;;5096506;28;20998;-83
2022/09/18 04:16:22;;;;;;;1.00;0.53;;;7.90;99.90;;;;;;5097759;28;20461;-82
2022/09/18 04:18:49;;;;;;;2.93;0.50;;;7.80;99.90;;;;;;5100767;28;20469;-84
2022/09/18 04:21:16;;;;;;;1.00;0.50;;;7.80;99.90;;;;;;5096351;28;20442;-83
2022/09/18 04:23:43;;;;;;;3.27;0.57;;;7.80;99.90;;;;;;5094984;28;20469;-84
2022/09/18 04:26:11;;;;;;;1.30;0.50;;;7.90;99.90;;;;;;5101264;28;21093;-83
2022/09/18 04:28:38;;;;;;;0.40;0.30;;;8.00;99.90;;;;;;5099301;28;20477;-83
2022/09/18 04:31:06;;;;;;;3.07;0.73;;;8.10;99.90;;;;;;5100561;28;20541;-82
2022/09/18 04:33:33;;;;;;;0.90;0.50;;;8.10;99.90;;;;;;5096561;28;20459;-83
2022/09/18 04:36:00;;;;;;;1.43;0.40;;;8.10;99.90;;;;;;5104423;28;20461;-82
2022/09/18 04:38:28;;;;;;;0.53;0.40;;;8.00;99.90;;;;;;5096114;28;20918;-84
2022/09/18 04:40:56;;;;;;;2.50;0.50;;;8.00;99.90;;;;;;5105828;28;20948;-83
2022/09/18 04:43:26;;;;;;;0.63;0.40;;;7.90;99.90;;;;;;5105285;27;20555;-84
2022/09/18 04:45:53;;;;;;;1.33;0.40;;;7.90;99.90;;;;;;5098818;28;20468;-83
2022/09/18 04:48:20;;;;;;;1.57;0.60;;;7.80;99.90;;;;;;5101980;28;20489;-83
2022/09/18 04:50:48;;;;;;;3.00;0.50;;;7.80;99.90;;;;;;5101364;27;20474;-82
2022/09/18 04:53:15;;;;;;;2.63;0.70;;;7.80;99.90;;;;;;5103804;28;20518;-83
2022/09/18 04:55:43;;;;;;;0.50;0.40;;;7.80;99.90;;;;;;5100229;28;21042;-83
2022/09/18 04:58:11;;;;;;;1.70;0.50;;;7.90;99.90;;;;;;5106259;28;20461;-84
2022/09/18 05:00:39;;;;;;;1.93;1.73;;;7.90;99.90;;;;;;5106292;28;20954;-83
2022/09/18 05:03:07;;;;;;;2.27;0.53;;;7.90;99.90;;;;;;5102936;28;20941;-83
2022/09/18 05:05:35;;;;;;;0.70;0.63;;;7.90;99.90;;;;;;5105579;28;20509;-82
2022/09/18 05:08:02;;;;;;;0.90;0.40;;;8.00;99.90;;;;;;5101277;28;20488;-82
2022/09/18 05:10:29;;;;;;;3.80;1.10;;;8.10;99.90;;;;;;5105146;28;20546;-83
2022/09/18 05:12:56;;;;;;;3.53;0.50;;;8.20;99.90;;;;;;5101427;28;20457;-82
2022/09/18 05:15:23;;;;;;;2.83;0.60;;;8.30;99.90;;;;;;5104698;28;20457;-84
2022/09/18 05:18:00;;;;;;;1.43;0.40;;;8.40;99.90;;;;;;5095650;28;20463;-83
2022/09/18 05:20:27;;;;;;;2.13;0.30;;;8.20;99.90;;;;;;5101337;28;21038;-82
2022/09/18 05:22:54;;;;;;;1.30;0.50;;;8.00;99.90;;;;;;5099142;28;20462;-83
2022/09/18 05:25:22;;;;;;;3.07;0.50;;;7.80;99.90;;;;;;5099879;28;20524;-83
2022/09/18 05:27:54;;;;;;;3.60;0.60;;;7.70;99.90;;;;;;5103642;28;20549;-86
2022/09/18 05:30:21;;;;;;;3.27;0.50;;;7.60;99.90;;;;;;5102073;27;20477;-84
2022/09/18 05:32:54;;;;;;;1.37;0.80;;;7.60;99.90;;;;;;5102847;28;20590;-83
2022/09/18 05:35:25;;;;;;;0.90;0.50;;;7.60;99.90;;;;;;5104490;28;21134;-84
2022/09/18 05:37:52;;;;;;;0.70;0.70;;;7.50;99.90;;;;;;5100027;28;21021;-83
2022/09/18 05:40:22;;;;;;;0.90;0.50;;;7.50;99.90;;;;;;5105638;28;20487;-82
2022/09/18 05:42:51;;;;;;;0.60;0.50;;;7.40;99.90;;;;;;5103581;27;20565;-83
2022/09/18 05:45:19;;;;;;;1.53;0.50;;;7.40;99.90;;;;;;5100359;27;20461;-83
2022/09/18 05:47:54;;;;;;;1.77;0.40;;;7.40;99.90;;;;;;5100829;28;20547;-83
2022/09/18 05:50:22;;;;;;;0.40;0.40;;;7.40;99.90;;;;;;5105402;28;20449;-88
2022/09/18 05:53:01;;;;;;;1.53;0.43;;;7.40;99.90;;;;;;5095354;28;20487;-84
2022/09/18 05:55:28;;;;;;;2.73;0.50;;;7.50;99.90;;;;;;5087878;28;20530;-84
2022/09/18 05:57:56;;;;;;;2.77;0.80;;;7.60;99.90;;;;;;5099414;27;20472;-85
2022/09/18 06:00:24;;;;;;;0.50;0.50;;;7.70;99.90;;;;;;5100559;27;20520;-84
2022/09/18 06:02:55;;;;;;;5.00;1.10;;;7.80;99.90;;;;;;5101049;27;20495;-83
2022/09/18 06:05:23;;;;;;;4.10;0.70;;;7.80;99.90;;;;;;5093273;27;20470;-85
2022/09/18 06:07:50;;;;;;;3.93;1.07;;;7.80;99.90;;;;;;5102085;27;20478;-83
2022/09/18 06:10:21;;;;;;;2.40;0.80;;;7.80;99.90;;;;;;5097282;28;20462;-87
2022/09/18 06:12:49;;;;;;;1.97;1.17;;;7.90;99.90;;;;;;5096399;28;20559;-84
2022/09/18 06:15:17;;;;;;;1.30;0.77;;;7.90;99.90;;;;;;5100453;28;21152;-86
2022/09/18 06:17:51;;;;;;;1.47;0.87;;;7.80;99.90;;;;;;5103028;28;20477;-87
2022/09/18 06:20:18;;;;;;;1.53;1.17;;;7.80;99.90;;;;;;5098278;28;20466;-86
2022/09/18 06:22:45;;;;;;;1.10;0.70;;;7.90;99.90;;;;;;5102774;27;20521;-85
2022/09/18 06:25:12;;;;;;;1.07;0.70;;;8.10;99.90;;;;;;5103310;28;20531;-85
2022/09/18 06:27:41;;;;;;;1.10;0.90;;;8.10;99.90;;;;;;5097937;27;20559;-86
2022/09/18 06:30:08;;;;;;;1.67;0.70;;;8.10;99.90;;;;;;5100045;28;20885;-85
2022/09/18 06:32:35;;;;;;;1.47;0.80;;;8.00;99.90;;;;;;5095056;27;20462;-83
2022/09/18 06:35:02;;;;;;;4.40;1.27;;;8.00;99.90;;;;;;5105319;27;20460;-84
2022/09/18 06:37:29;;;;;;;2.70;0.80;;;7.80;99.90;;;;;;5113938;28;20455;-85
2022/09/18 06:39:56;;;;;;;3.10;0.90;;;7.70;99.90;;;;;;5114768;28;20465;-87
2022/09/18 06:42:23;;;;;;;2.10;0.40;;;7.60;99.90;;;;;;5104308;27;20499;-85
2022/09/18 06:44:51;;;;;;;0.67;0.50;;;7.30;99.90;;;;;;5109114;27;20465;-82
2022/09/18 06:47:18;;;;;;;0.60;0.30;;;7.20;99.90;;;;;;5101409;28;21188;-84
2022/09/18 06:49:45;;;;;;;0.70;0.40;;;7.20;99.90;;;;;;5097446;28;20473;-83
2022/09/18 06:52:12;;;;;;;2.10;0.80;;;7.00;99.90;;;;;;5102526;27;20459;-84
2022/09/18 06:54:39;;;;;;;0.40;0.40;;;6.90;99.90;;;;;;5099165;27;20527;-83
2022/09/18 06:57:06;;;;;;;0.50;0.40;;;6.90;99.90;;;;;;5103508;27;20477;-83
2022/09/18 06:59:33;;;;;;;0.40;0.30;;;7.00;99.90;;;;;;5101289;28;20544;-82
2022/09/18 07:02:02;;;;;;;0.47;0.30;;;7.10;99.90;;;;;;5106137;27;20538;-83
2022/09/18 07:04:29;;;;;;;0.70;0.40;;;7.30;99.90;;;;;;5099236;28;21230;-84
2022/09/18 07:06:56;;;;;;;1.43;0.40;;;7.40;99.90;;;;;;5098588;27;20519;-86
2022/09/18 07:09:23;;;;;;;0.60;0.50;;;7.50;99.90;;;;;;5096409;28;20548;-83
2022/09/18 07:11:50;;;;;;;0.60;0.50;;;7.60;99.90;;;;;;5094536;28;20471;-85
2022/09/18 07:14:17;;;;;;;3.30;0.50;;;7.70;99.90;;;;;;5100949;27;20526;-85
2022/09/18 07:16:44;;;;;;;0.60;0.60;;;7.80;99.90;;;;;;5101649;28;20770;-86
2022/09/18 07:19:12;;;;;;;4.90;0.57;;;7.90;99.90;;;;;;5095165;28;20463;-86
2022/09/18 07:21:39;;;;;;;0.77;0.57;;;8.00;99.90;;;;;;5104603;28;20523;-86
2022/09/18 07:24:06;;;;;;;0.63;0.63;;;8.00;99.90;;;;;;5098429;28;20473;-85
2022/09/18 07:26:33;;;;;;;0.70;0.60;;;8.00;99.90;;;;;;5099598;28;20531;-86
2022/09/18 07:29:03;;;;;;;0.60;0.60;;;8.00;99.90;;;;;;5095275;27;20491;-85
2022/09/18 07:31:30;;;;;;;2.83;2.13;;;8.10;99.90;;;;;;5095757;28;20477;-84
2022/09/18 07:33:57;;;;;;;2.50;1.07;;;8.20;99.90;;;;;;5094703;28;20558;-86
2022/09/18 07:36:26;;;;;;;2.30;0.83;;;8.40;99.90;;;;;;5099301;28;20877;-84
2022/09/18 07:38:53;;;;;;;3.03;1.33;;;8.60;99.90;;;;;;5094562;28;20477;-85
2022/09/18 07:41:25;;;;;;;3.57;0.90;;;8.80;99.90;;;;;;5100837;28;20458;-90
2022/09/18 07:43:56;;;;;;;2.63;0.90;;;8.90;99.90;;;;;;5103916;28;20531;-88
2022/09/18 07:46:23;;;;;;;1.50;0.97;;;9.00;99.90;;;;;;5097043;28;20457;-88
2022/09/18 07:48:51;;;;;;;5.50;0.80;;;9.10;99.90;;;;;;5102544;28;20478;-87
2022/09/18 07:51:18;;;;;;;1.67;0.60;;;9.10;99.90;;;;;;5101014;28;20446;-88
2022/09/18 07:53:48;;;;;;;2.20;0.90;;;9.20;99.90;;;;;;5102789;28;20535;-88
2022/09/18 07:56:15;;;;;;;0.83;0.63;;;9.20;99.90;;;;;;5103905;28;20515;-86
2022/09/18 07:58:42;;;;;;;3.03;0.80;;;9.40;99.90;;;;;;5105711;28;20462;-87
2022/09/18 08:01:09;;;;;;;2.50;0.63;;;9.70;99.90;;;;;;5098055;28;20519;-86
2022/09/18 08:03:37;;;;;;;5.37;0.70;;;10.40;99.90;;;;;;5097085;28;21011;-87
2022/09/18 08:06:05;;;;;;;0.60;0.50;;;10.40;99.90;;;;;;5095958;28;20461;-86
2022/09/18 08:08:35;;;;;;;1.90;0.60;;;10.70;99.90;;;;;;5094642;28;20485;-87
2022/09/18 08:11:03;;;;;;;2.53;0.80;;;10.90;99.90;;;;;;5098214;28;20821;-87
2022/09/18 08:13:31;;;;;;;1.77;0.60;;;11.00;99.90;;;;;;5100758;28;20447;-85
2022/09/18 08:15:58;;;;;;;1.17;0.50;;;11.10;99.90;;;;;;5101163;28;20581;-85
2022/09/18 08:18:25;;;;;;;0.60;0.60;;;10.80;99.90;;;;;;5106365;28;20471;-86
2022/09/18 08:20:55;;;;;;;0.70;0.60;;;10.80;99.90;;;;;;5105829;27;20462;-87
2022/09/18 08:23:22;;;;;;;3.23;0.50;;;10.80;99.90;;;;;;5106663;27;20555;-87
2022/09/18 08:25:49;;;;;;;0.60;0.50;;;11.10;99.90;;;;;;5103686;28;20450;-85
2022/09/18 08:28:17;;;;;;;0.90;0.50;;;11.10;99.90;;;;;;5097322;28;20485;-84
2022/09/18 08:30:44;;;;;;;1.97;1.00;;;10.90;99.90;;;;;;5104095;27;20488;-84
2022/09/18 08:33:11;;;;;;;3.57;0.70;;;11.10;99.90;;;;;;5102047;27;20514;-85
2022/09/18 08:35:38;;;;;;;1.03;0.57;;;11.10;99.90;;;;;;5096454;28;20484;-83
2022/09/18 08:38:06;;;;;;;1.20;0.60;;;11.10;99.90;;;;;;5101521;28;20520;-83
2022/09/18 08:41:04;;;;;;;1.10;1.00;;;11.30;99.90;;;;;;5104891;27;20465;-84
2022/09/18 08:43:56;;;;;;;0.50;0.40;;;11.10;99.90;;;;;;5104531;27;20472;-84
2022/09/18 08:46:30;;;;;;;2.93;0.43;;;10.90;99.90;;;;;;5097481;27;20520;-82
2022/09/18 08:49:06;;;;;;;0.80;0.70;;;10.50;99.90;;;;;;5102384;28;20874;-85
2022/09/18 08:51:42;;;;;;;2.40;0.70;;;10.30;99.90;;;;;;5097849;27;20526;-84
2022/09/18 08:54:20;;;;;;;4.70;0.60;;;10.30;99.90;;;;;;5092042;28;20454;-84
2022/09/18 08:56:48;;;;;;;1.23;0.60;;;10.40;99.90;;;;;;5103896;27;20489;-83
2022/09/18 08:59:23;;;;;;;2.97;2.00;;;10.50;99.90;;;;;;5108748;27;20458;-81
2022/09/18 09:02:03;;;;;;;2.10;1.53;;;10.80;99.90;;;;;;5115050;27;20916;-83
2022/09/18 09:04:30;;;;;;;0.40;0.30;;;11.00;99.90;;;;;;5099844;27;20459;-81
2022/09/18 09:07:12;;;;;;;0.40;0.30;;;11.20;99.90;;;;;;5096344;27;20554;-83
2022/09/18 09:09:56;;;;;;;0.87;0.40;;;11.00;99.90;;;;;;5101855;27;20485;-82
2022/09/18 09:12:31;;;;;;;2.20;0.50;;;11.00;99.90;;;;;;5100912;27;20457;-83
2022/09/18 09:15:37;;;;;;;1.53;0.80;;;11.00;99.90;;;;;;5097101;27;20457;-84
2022/09/18 09:18:16;;;;;;;2.73;0.50;;;11.20;99.90;;;;;;5099833;27;20465;-83
2022/09/18 09:20:50;;;;;;;1.83;0.43;;;11.30;99.90;;;;;;5104062;28;20490;-83
2022/09/18 09:23:27;;;;;;;0.53;0.40;;;11.40;99.90;;;;;;5105543;27;20491;-82
2022/09/18 09:26:02;;;;;;;1.90;0.90;;;11.70;99.90;;;;;;5104952;28;20454;-84
2022/09/18 09:28:33;;;;;;;0.60;0.53;;;11.70;99.90;;;;;;5104968;27;20564;-82
2022/09/18 09:31:05;;;;;;;0.60;0.50;;;12.10;99.90;;;;;;5104676;27;20514;-82
2022/09/18 09:33:38;;;;;;;0.50;0.47;;;11.90;99.90;;;;;;5097234;27;20546;-83
2022/09/18 09:36:09;;;;;;;0.70;0.50;;;11.80;99.90;;;;;;5101479;27;20453;-80
2022/09/18 09:38:44;;;;;;;0.60;0.60;;;11.90;99.90;;;;;;5106061;27;20470;-80
2022/09/18 09:41:22;;;;;;;2.20;0.50;;;12.30;99.90;;;;;;5097708;28;21038;-81
2022/09/18 09:43:57;;;;;;;0.60;0.40;;;12.10;99.90;;;;;;5091182;28;20474;-81
2022/09/18 09:46:40;;;;;;;0.60;0.37;;;11.90;99.90;;;;;;5102115;28;20485;-82
2022/09/18 09:49:14;;;;;;;2.07;0.60;;;11.80;99.90;;;;;;5087222;27;20606;-81
2022/09/18 09:51:51;;;;;;;0.50;0.40;;;11.60;99.90;;;;;;5092575;27;20506;-83
2022/09/18 09:54:18;;;;;;;0.90;0.60;;;11.40;99.90;;;;;;5099298;27;20505;-80
2022/09/18 09:56:54;;;;;;;2.27;0.50;;;11.20;99.90;;;;;;5111094;27;20446;-82
2022/09/18 09:59:29;;;;;;;0.50;0.40;;;11.50;99.90;;;;;;5102585;28;20465;-81
2022/09/18 10:02:03;;;;;;;2.73;0.40;;;11.60;99.90;;;;;;5102413;27;21028;-79
2022/09/18 10:04:40;;;;;;;0.80;0.40;;;11.60;99.90;;;;;;5116594;28;20459;-81
2022/09/18 10:07:17;;;;;;;1.33;0.40;;;11.70;99.90;;;;;;5112504;27;20507;-81
2022/09/18 10:09:51;;;;;;;0.70;0.40;;;11.50;99.90;;;;;;5098198;28;20992;-80
2022/09/18 10:12:27;;;;;;;1.33;0.70;;;11.30;99.90;;;;;;5108244;27;20493;-80
2022/09/18 10:15:01;;;;;;;0.90;0.50;;;11.00;99.90;;;;;;5090635;28;20435;-80
2022/09/18 10:17:34;;;;;;;0.60;0.40;;;11.00;99.90;;;;;;5092660;28;20519;-81
2022/09/18 10:20:04;;;;;;;0.70;0.50;;;10.90;99.90;;;;;;5099037;28;20457;-81
2022/09/18 10:22:33;;;;;;;0.57;0.53;;;10.80;99.90;;;;;;5105348;28;20469;-80
2022/09/18 10:25:03;;;;;;;0.50;0.50;;;10.70;99.90;;;;;;5105210;28;20470;-80
2022/09/18 10:27:31;;;;;;;3.90;0.70;;;10.60;99.90;;;;;;5100005;28;20516;-80
2022/09/18 10:29:58;;;;;;;1.37;0.50;;;10.60;99.90;;;;;;5097065;28;20493;-81
2022/09/18 10:32:35;;;;;;;0.63;0.53;;;10.60;99.90;;;;;;5089424;28;20443;-80
2022/09/18 10:35:41;;;;;;;1.23;0.50;;;10.40;99.90;;;;;;5100849;27;20496;-81
2022/09/18 10:38:36;;;;;;;0.40;0.40;;;10.50;99.90;;;;;;5089456;28;20458;-81
2022/09/18 10:41:25;;;;;;;2.27;1.90;;;10.30;99.90;;;;;;5098414;28;20458;-81
2022/09/18 10:43:59;;;;;;;1.60;0.60;;;10.50;99.90;;;;;;5111788;27;20514;-83
2022/09/18 10:46:30;;;;;;;1.03;0.60;;;10.70;99.90;;;;;;5093929;28;20520;-83
2022/09/18 10:48:59;;;;;;;1.10;0.60;;;11.00;99.90;;;;;;5100457;28;20505;-81
2022/09/18 10:51:28;;;;;;;1.23;0.50;;;10.90;99.90;;;;;;5098490;27;20465;-83
2022/09/18 10:54:03;;;;;;;1.57;0.70;;;10.80;99.90;;;;;;5098469;28;20466;-82
2022/09/18 10:56:32;;;;;;;0.70;0.50;;;10.80;99.90;;;;;;5098596;27;20497;-82
2022/09/18 10:59:31;;;;;;;1.53;0.70;;;10.70;99.90;;;;;;5091099;28;20812;-82
2022/09/18 11:01:59;;;;;;;0.70;0.60;;;10.80;99.90;;;;;;5104072;28;20454;-82
2022/09/18 11:04:27;;;;;;;3.70;0.50;;;10.90;99.90;;;;;;5097656;27;20546;-81
2022/09/18 11:06:57;;;;;;;0.50;0.50;;;10.80;99.90;;;;;;5102373;27;21032;-80
2022/09/18 11:09:30;;;;;;;0.50;0.50;;;10.90;99.90;;;;;;5103955;27;20482;-81
2022/09/18 11:11:57;;;;;;;0.40;0.30;;;11.10;99.90;;;;;;5098322;28;20520;-80
2022/09/18 11:14:27;;;;;;;0.50;0.40;;;11.20;99.90;;;;;;5094843;28;20562;-81
2022/09/18 11:16:59;;;;;;;1.53;0.53;;;11.30;99.90;;;;;;5105567;27;20454;-81
2022/09/18 11:19:28;;;;;;;0.60;0.40;;;11.40;99.90;;;;;;5101721;28;20461;-81
2022/09/18 11:22:00;;;;;;;2.03;0.33;;;11.50;99.90;;;;;;5106644;28;20442;-81
2022/09/18 11:24:32;;;;;;;0.50;0.43;;;11.50;99.90;;;;;;5101633;27;20462;-80
2022/09/18 11:27:00;;;;;;;0.70;0.30;;;11.40;99.90;;;;;;5099664;27;20476;-81
2022/09/18 11:29:32;;;;;;;0.87;0.40;;;11.60;99.90;;;;;;5095902;28;20585;-82
2022/09/18 11:32:03;;;;;;;0.47;0.33;;;11.70;99.90;;;;;;5104812;28;20466;-81
2022/09/18 11:34:33;;;;;;;0.40;0.37;;;11.60;99.90;;;;;;5095020;28;20462;-80
2022/09/18 11:37:07;;;;;;;1.13;0.40;;;11.70;99.90;;;;;;5091541;28;20476;-83
2022/09/18 11:39:37;;;;;;;1.00;0.40;;;11.70;99.90;;;;;;5099194;28;20450;-80
2022/09/18 11:42:10;;;;;;;1.20;0.57;;;11.60;99.90;;;;;;5103609;28;20999;-81
2022/09/18 11:44:37;;;;;;;0.60;0.50;;;11.80;99.90;;;;;;5101186;28;20490;-80
2022/09/18 11:47:31;;;;;;;0.47;0.30;;;11.80;99.90;;;;;;5101555;28;20458;-84
2022/09/18 11:50:10;;;;;;;0.57;0.30;;;11.70;99.90;;;;;;5101143;27;20538;-81
2022/09/18 11:52:42;;;;;;;0.40;0.40;;;11.60;99.90;;;;;;5101442;27;20469;-80
2022/09/18 11:55:22;;;;;;;2.60;0.60;;;11.60;99.90;;;;;;5102514;27;20977;-81
2022/09/18 11:57:53;;;;;;;0.40;0.33;;;11.40;99.90;;;;;;5107608;27;20466;-83
2022/09/18 12:00:21;;;;;;;0.60;0.40;;;11.30;99.90;;;;;;5106217;28;20982;-81
2022/09/18 12:02:58;;;;;;;0.40;0.30;;;11.20;99.90;;;;;;5105468;28;20465;-82
2022/09/18 12:05:51;;;;;;;0.70;0.30;;;11.30;99.90;;;;;;5092220;28;20457;-80
2022/09/18 12:08:26;;;;;;;0.40;0.30;;;11.30;99.90;;;;;;5102755;27;20465;-82
2022/09/18 12:11:09;;;;;;;0.60;0.30;;;11.40;99.90;;;;;;5095586;28;20963;-81
2022/09/18 12:13:48;;;;;;;0.83;0.30;;;11.30;99.90;;;;;;5098865;27;20984;-81
2022/09/18 12:16:21;;;;;;;0.40;0.30;;;11.40;99.90;;;;;;5098338;27;20479;-80
2022/09/18 12:18:57;;;;;;;0.40;0.30;;;11.30;99.90;;;;;;5097010;28;20511;-80
2022/09/18 12:21:36;;;;;;;0.40;0.30;;;11.30;99.90;;;;;;5097903;28;21000;-81
2022/09/18 12:24:04;;;;;;;0.40;0.20;;;11.30;99.90;;;;;;5100659;27;20897;-80
2022/09/18 12:26:39;;;;;;;0.60;0.30;;;11.40;99.90;;;;;;5089313;28;20496;-81
2022/09/18 12:29:17;;;;;;;0.97;0.30;;;11.40;99.90;;;;;;5083922;27;21058;-80
2022/09/18 12:31:55;;;;;;;0.50;0.30;;;11.40;99.90;;;;;;5086709;27;20512;-82
2022/09/18 12:34:28;;;;;;;1.60;0.40;;;11.40;99.90;;;;;;5089731;27;20471;-83
2022/09/18 12:37:06;;;;;;;0.40;0.30;;;11.50;99.90;;;;;;5088222;27;20519;-82
2022/09/18 12:40:03;;;;;;;0.60;0.40;;;11.50;99.90;;;;;;5088002;27;20557;-82
2022/09/18 12:42:39;;;;;;;0.50;0.40;;;11.40;99.90;;;;;;5089624;27;21036;-82
2022/09/18 12:45:49;;;;;;;0.80;0.40;;;11.40;99.90;;;;;;5087577;27;20971;-80
2022/09/18 12:48:36;;;;;;;0.77;0.40;;;11.40;99.90;;;;;;5092472;28;20462;-78
2022/09/18 12:51:17;;;;;;;0.43;0.37;;;11.20;99.90;;;;;;5102391;27;20470;-80
2022/09/18 12:53:56;;;;;;;0.70;0.40;;;11.10;99.90;;;;;;5102362;27;20862;-82
2022/09/18 12:56:43;;;;;;;0.67;0.30;;;11.00;99.90;;;;;;5093000;28;20446;-81
2022/09/18 12:59:41;;;;;;;0.70;0.60;;;10.80;99.90;;;;;;5101197;28;20462;-81
2022/09/18 13:02:21;;;;;;;0.53;0.40;;;10.80;99.90;;;;;;5082456;28;20511;-81
2022/09/18 13:04:53;;;;;;;0.40;0.30;;;10.80;99.90;;;;;;5107227;27;20458;-80
2022/09/18 13:07:25;;;;;;;1.17;0.50;;;10.80;99.90;;;;;;5106623;28;20496;-82
2022/09/18 13:09:57;;;;;;;2.83;0.50;;;10.70;99.90;;;;;;5105676;27;20485;-81
2022/09/18 13:12:29;;;;;;;0.60;0.50;;;10.70;99.90;;;;;;5097368;27;20574;-80
2022/09/18 13:15:01;;;;;;;0.70;0.40;;;10.70;99.90;;;;;;5106817;27;20456;-80